Veyo, Utah
Current Conditions -  °F | °C
As of 8:15 PM on Sunday 23 Nov 2014 (Local Time) from KSGU Reporting Station
Clear Clear  
Wind Chill: 41°   Ceiling: Unl
Heat Index: 45°   Visibility: 10mi
Dew Point: 10°   Wind: 6mph
Humidity: 25%   Direction: 240°WSW
Pressure: 30.25"   Gusts: NA
Location:  37.34°N, 113.69°W
Report Text: KSGU 240315Z AUTO 24005KT 10SM CLR 07/M12 A3025 RMK AO1
Loading
Personal Weather Stations






























Interactive Weather Map New forecast layout! Learn more

10-Day Weather Forecast

Advertisements
Track Severe Weather on mobile